Time;durP1;ratioP1;P1;durP2;ratioP2;P2;SDS_P1;SDS_P2;PMS_P1;PMS_P2;Temp;Humidity;BMP_temperature;BMP_pressure;BME280_temperature;BME280_humidity;BME280_pressure;Samples;Min_cycle;Max_cycle;Signal;HPM_P1;HPM_P2
2023/10/11 00:02:44;;;;;;;39.87;24.37;;;10.20;99.90;;;;;;10441701;28;20194;-78
2023/10/11 00:08:08;;;;;;;39.10;25.13;;;10.20;99.90;;;;;;10406941;28;20194;-78
2023/10/11 00:13:35;;;;;;;39.87;26.50;;;10.20;99.90;;;;;;10440152;28;20202;-77
2023/10/11 00:18:57;;;;;;;33.93;22.00;;;10.20;99.90;;;;;;10439541;28;20247;-77
2023/10/11 00:24:23;;;;;;;55.57;30.20;;;10.30;99.90;;;;;;10439263;28;20406;-78
2023/10/11 00:29:44;;;;;;;46.37;27.67;;;10.30;99.90;;;;;;10440428;28;20385;-78
2023/10/11 00:35:06;;;;;;;45.67;27.10;;;10.40;99.90;;;;;;10439463;28;20254;-78
2023/10/11 00:40:31;;;;;;;45.17;27.23;;;10.40;99.90;;;;;;10425066;28;20203;-77
2023/10/11 00:45:54;;;;;;;33.50;22.57;;;10.40;99.90;;;;;;10410233;28;20293;-78
2023/10/11 00:51:16;;;;;;;36.40;22.90;;;10.50;99.90;;;;;;10425199;28;20191;-78
2023/10/11 00:56:43;;;;;;;40.67;25.10;;;10.50;99.90;;;;;;10399937;28;20227;-78
2023/10/11 01:02:06;;;;;;;44.40;29.77;;;10.60;99.90;;;;;;10398347;28;20186;-78
2023/10/11 01:07:28;;;;;;;51.53;29.67;;;10.60;99.90;;;;;;10445993;28;20213;-78
2023/10/11 01:12:50;;;;;;;74.20;38.53;;;10.70;99.90;;;;;;10437868;28;20507;-78
2023/10/11 01:18:12;;;;;;;61.70;34.97;;;10.80;99.90;;;;;;10437494;28;20394;-78
2023/10/11 01:23:34;;;;;;;45.57;27.53;;;10.90;99.90;;;;;;10437724;28;20412;-77
2023/10/11 01:28:56;;;;;;;38.20;24.77;;;11.00;99.90;;;;;;10437314;28;20201;-78
2023/10/11 01:34:18;;;;;;;39.43;25.23;;;11.00;99.90;;;;;;10422246;28;20247;-78
2023/10/11 01:39:39;;;;;;;41.00;25.60;;;11.10;99.90;;;;;;10436913;28;20377;-78
2023/10/11 01:45:03;;;;;;;44.23;28.00;;;11.20;99.90;;;;;;10436199;28;20199;-78
2023/10/11 01:50:24;;;;;;;40.87;26.83;;;11.20;99.90;;;;;;10436733;28;20197;-78
2023/10/11 01:55:47;;;;;;;48.90;33.57;;;11.20;99.90;;;;;;10434627;28;20309;-78
2023/10/11 02:01:22;;;;;;;43.50;28.73;;;11.20;99.90;;;;;;10422689;28;20439;-78
2023/10/11 02:06:44;;;;;;;48.17;29.73;;;11.20;99.90;;;;;;10435760;28;20210;-78
2023/10/11 02:12:10;;;;;;;44.90;28.50;;;11.30;99.90;;;;;;10436211;28;20221;-78
2023/10/11 02:17:33;;;;;;;40.83;27.37;;;11.30;99.90;;;;;;10425623;28;20224;-78
2023/10/11 02:22:55;;;;;;;39.10;26.90;;;11.40;99.90;;;;;;10435482;28;20240;-78
2023/10/11 02:28:17;;;;;;;38.70;25.50;;;11.40;99.90;;;;;;10435247;28;20491;-78
2023/10/11 02:33:39;;;;;;;37.00;25.17;;;11.40;99.90;;;;;;10435232;28;20292;-78
2023/10/11 02:39:00;;;;;;;36.73;24.63;;;11.50;99.90;;;;;;10434974;28;20537;-78
2023/10/11 02:44:22;;;;;;;37.17;24.37;;;11.50;99.90;;;;;;10435345;28;20396;-78
2023/10/11 02:49:44;;;;;;;36.97;25.60;;;11.60;99.90;;;;;;10421086;28;20196;-78
2023/10/11 02:55:20;;;;;;;42.50;27.23;;;11.60;99.90;;;;;;10433021;28;20245;-78
2023/10/11 03:00:44;;;;;;;35.63;24.27;;;11.70;99.90;;;;;;10436012;28;20197;-78
2023/10/11 03:06:08;;;;;;;35.00;24.30;;;11.70;99.90;;;;;;10431360;28;20198;-78
2023/10/11 03:11:29;;;;;;;46.00;30.87;;;11.70;99.90;;;;;;10434720;28;20246;-78
2023/10/11 03:16:56;;;;;;;38.67;25.67;;;11.80;99.90;;;;;;10433768;28;20559;-78
2023/10/11 03:22:20;;;;;;;34.53;24.40;;;11.80;99.90;;;;;;10433522;28;20197;-78
2023/10/11 03:27:49;;;;;;;34.57;26.27;;;11.80;99.90;;;;;;10434273;28;20230;-78
2023/10/11 03:33:11;;;;;;;39.83;27.23;;;11.80;99.90;;;;;;10434345;28;20238;-78
2023/10/11 03:38:33;;;;;;;34.77;24.90;;;11.90;99.90;;;;;;10434936;28;20671;-78
2023/10/11 03:44:09;;;;;;;43.73;29.70;;;11.90;99.90;;;;;;10439563;28;20210;-78
2023/10/11 03:55:10;;;;;;;34.93;24.73;;;11.90;99.90;;;;;;10420045;28;20237;-79
2023/10/11 04:00:46;;;;;;;32.73;25.20;;;12.00;99.90;;;;;;10452404;28;20237;-78
2023/10/11 04:06:15;;;;;;;33.77;24.80;;;12.00;99.90;;;;;;10440898;28;20215;-79
2023/10/11 04:11:55;;;;;;;34.33;24.57;;;12.00;99.90;;;;;;10441125;28;20281;-78
2023/10/11 04:23:01;;;;;;;35.07;26.70;;;12.10;99.90;;;;;;10424960;28;20203;-78
2023/10/11 04:28:25;;;;;;;33.80;25.53;;;12.10;99.90;;;;;;10425987;28;20199;-78
2023/10/11 04:33:51;;;;;;;52.63;35.53;;;12.10;99.90;;;;;;10424490;28;20246;-78
2023/10/11 04:39:16;;;;;;;38.90;27.70;;;12.10;99.90;;;;;;10411449;28;20231;-78
2023/10/11 04:44:47;;;;;;;42.30;27.33;;;12.20;99.90;;;;;;10439410;28;20281;-78
2023/10/11 04:50:11;;;;;;;35.30;25.87;;;12.20;99.90;;;;;;10439744;28;20217;-77
2023/10/11 04:55:35;;;;;;;39.00;28.57;;;12.20;99.90;;;;;;10426000;28;20221;-78
2023/10/11 05:01:01;;;;;;;37.20;27.43;;;12.20;99.90;;;;;;10424259;28;20220;-78
2023/10/11 05:06:30;;;;;;;44.83;31.47;;;12.20;99.90;;;;;;10424023;28;20497;-78
2023/10/11 05:11:58;;;;;;;35.17;26.33;;;12.30;99.90;;;;;;10410362;28;20230;-78
2023/10/11 05:22:55;;;;;;;43.60;30.07;;;12.30;99.90;;;;;;10436619;28;20286;-78
2023/10/11 05:33:57;;;;;;;41.23;27.83;;;12.30;99.90;;;;;;10422119;28;20245;-78
2023/10/11 05:50:54;;;;;;;54.97;33.83;;;12.40;99.90;;;;;;10392957;28;20197;-78
2023/10/11 05:56:22;;;;;;;48.00;30.10;;;12.40;99.90;;;;;;10391756;28;20242;-78
2023/10/11 06:01:47;;;;;;;38.70;28.40;;;12.40;99.90;;;;;;10392601;28;20504;-78
2023/10/11 06:07:20;;;;;;;41.17;28.20;;;12.50;99.90;;;;;;10374566;28;20301;-78
2023/10/11 06:12:42;;;;;;;37.10;28.83;;;12.60;99.90;;;;;;10353359;28;20278;-78
2023/10/11 06:18:05;;;;;;;33.97;26.20;;;12.60;99.90;;;;;;10381136;28;20236;-78
2023/10/11 06:23:26;;;;;;;35.30;25.20;;;12.70;99.90;;;;;;10434284;28;20208;-79
2023/10/11 06:28:48;;;;;;;46.00;26.93;;;12.70;99.90;;;;;;10435918;28;20312;-79
2023/10/11 06:34:15;;;;;;;32.60;24.60;;;12.70;99.90;;;;;;10435341;28;20280;-79
2023/10/11 06:45:05;;;;;;;53.20;32.17;;;12.90;99.90;;;;;;10434005;28;20206;-78
2023/10/11 06:50:26;;;;;;;55.30;27.57;;;13.00;99.90;;;;;;10421117;28;20241;-78
2023/10/11 06:55:50;;;;;;;35.77;24.57;;;13.00;99.90;;;;;;10415158;28;20228;-79
2023/10/11 07:01:14;;;;;;;42.00;26.53;;;13.10;99.90;;;;;;10396345;28;20775;-77
2023/10/11 07:06:35;;;;;;;45.50;23.57;;;13.20;99.90;;;;;;10298665;28;20224;-77
2023/10/11 07:17:39;;;;;;;25.40;19.48;;;13.40;99.90;;;;;;10271935;28;20234;-77
2023/10/11 07:23:05;;;;;;;25.20;19.97;;;13.50;99.90;;;;;;10305654;28;20204;-78
2023/10/11 07:28:36;;;;;;;25.63;20.10;;;13.50;99.90;;;;;;10296164;28;20209;-77
2023/10/11 07:33:58;;;;;;;27.60;19.08;;;13.60;99.90;;;;;;10313583;28;20237;-77
2023/10/11 07:39:20;;;;;;;28.83;19.40;;;13.70;99.90;;;;;;10268452;28;20316;-79
2023/10/11 07:44:46;;;;;;;23.58;16.45;;;13.80;99.90;;;;;;10298932;28;20391;-77
2023/10/11 07:50:14;;;;;;;22.20;16.08;;;14.00;99.90;;;;;;10312838;28;20217;-77
2023/10/11 07:55:38;;;;;;;20.40;14.48;;;;;;;;;;10313510;28;20242;-78
2023/10/11 08:01:04;;;;;;;18.45;13.15;;;;;;;;;;10314155;28;20426;-78
2023/10/11 08:06:29;;;;;;;22.48;14.40;;;15.80;99.90;;;;;;10311803;28;20540;-77
2023/10/11 08:11:59;;;;;;;21.15;12.60;;;15.60;99.90;;;;;;10310128;28;20220;-78
2023/10/11 08:17:21;;;;;;;15.13;10.77;;;15.90;1.00;;;;;;10313914;28;20276;-79
2023/10/11 08:22:46;;;;;;;16.80;10.07;;;16.40;99.90;;;;;;10297871;28;20205;-79
2023/10/11 08:28:19;;;;;;;16.45;10.13;;;16.80;99.90;;;;;;10290020;28;20285;-77
2023/10/11 08:33:43;;;;;;;28.73;11.00;;;17.10;1.00;;;;;;10270779;28;20246;-77
2023/10/11 08:39:06;;;;;;;18.02;10.40;;;17.40;1.00;;;;;;10279941;28;20229;-77
2023/10/11 08:44:29;;;;;;;21.13;10.60;;;17.70;99.90;;;;;;10310925;28;20320;-77
2023/10/11 08:49:50;;;;;;;17.58;9.05;;;17.90;1.00;;;;;;10309346;28;20215;-77
2023/10/11 08:55:19;;;;;;;19.05;10.95;;;18.00;99.90;;;;;;10312492;28;20233;-77
2023/10/11 09:00:47;;;;;;;33.83;17.17;;;18.20;57.60;;;;;;10296405;28;20375;-77
2023/10/11 09:06:22;;;;;;;37.63;18.65;;;18.60;1.00;;;;;;10309407;28;20298;-77
2023/10/11 09:11:57;;;;;;;16.80;8.55;;;18.50;1.00;;;;;;10279067;28;20215;-77
2023/10/11 09:17:19;;;;;;;15.65;7.22;;;18.80;1.00;;;;;;10276172;28;20318;-77
2023/10/11 09:22:47;;;;;;;10.02;6.30;;;19.00;1.00;;;;;;10311106;28;20202;-77
2023/10/11 09:28:16;;;;;;;9.82;6.18;;;19.70;99.90;;;;;;10309865;28;20202;-77
2023/10/11 09:33:41;;;;;;;12.35;6.70;;;;;;;;;;10310700;28;20230;-74
2023/10/11 09:39:03;;;;;;;16.90;7.55;;;20.30;99.90;;;;;;10293370;28;20233;-77
2023/10/11 09:44:28;;;;;;;10.10;6.50;;;19.90;99.90;;;;;;10309868;28;20209;-76
2023/10/11 09:49:53;;;;;;;9.13;5.68;;;20.20;99.90;;;;;;10309570;28;20230;-77
2023/10/11 09:55:19;;;;;;;14.40;6.45;;;;;;;;;;10324855;28;20238;-76
2023/10/11 10:00:51;;;;;;;11.30;6.00;;;21.60;99.90;;;;;;10307874;28;20233;-77
2023/10/11 10:06:21;;;;;;;9.27;5.78;;;;;;;;;;10304140;28;20466;-77
2023/10/11 10:12:09;;;;;;;8.77;5.63;;;22.10;1.00;;;;;;10310120;28;20203;-78
2023/10/11 10:17:30;;;;;;;12.27;5.63;;;22.50;1.00;;;;;;10293728;28;20222;-77
2023/10/11 10:23:14;;;;;;;11.18;5.75;;;22.60;1.00;;;;;;10304960;28;20195;-78
2023/10/11 10:28:39;;;;;;;12.80;6.22;;;22.80;1.00;;;;;;10308435;28;20198;-77
2023/10/11 10:34:13;;;;;;;12.73;5.68;;;22.70;1.00;;;;;;10309485;28;20238;-77
2023/10/11 10:39:46;;;;;;;11.95;6.05;;;22.80;1.00;;;;;;10308194;28;20222;-77
2023/10/11 10:45:07;;;;;;;7.65;5.03;;;22.90;1.00;;;;;;10306469;28;20230;-77
2023/10/11 10:50:32;;;;;;;9.00;5.60;;;22.80;1.00;;;;;;10310646;28;20205;-78
2023/10/11 10:55:57;;;;;;;8.00;5.40;;;22.50;1.00;;;;;;10315936;28;20253;-80
2023/10/11 11:01:28;;;;;;;9.23;5.10;;;21.60;1.00;;;;;;10302711;28;20269;-80
2023/10/11 11:06:52;;;;;;;9.15;5.72;;;21.10;1.00;;;;;;10317898;28;20229;-77
2023/10/11 11:12:17;;;;;;;11.20;6.50;;;20.90;1.00;;;;;;10307124;28;20202;-81
2023/10/11 11:17:46;;;;;;;10.20;6.07;;;20.80;1.00;;;;;;10314921;28;20226;-79
2023/10/11 11:23:07;;;;;;;8.00;5.30;;;20.60;1.00;;;;;;10296728;28;20194;-80
2023/10/11 11:28:29;;;;;;;10.65;6.80;;;20.60;1.00;;;;;;10297702;28;20199;-80
2023/10/11 11:34:05;;;;;;;12.68;6.88;;;21.20;1.00;;;;;;10280008;28;20238;-78
2023/10/11 11:39:27;;;;;;;10.90;4.80;;;22.20;1.00;;;;;;10299081;28;20230;-82
2023/10/11 11:44:53;;;;;;;11.30;5.25;;;;;;;;;;10312772;28;20199;-79
2023/10/11 11:50:18;;;;;;;15.98;7.88;;;;;;;;;;10298913;28;20297;-79
2023/10/11 11:56:00;;;;;;;18.92;8.18;;;24.70;1.00;;;;;;10313794;28;20210;-79
2023/10/11 12:01:26;;;;;;;10.15;4.88;;;24.50;1.00;;;;;;10309784;28;20206;-85
2023/10/11 12:06:48;;;;;;;16.52;5.20;;;24.10;1.00;;;;;;10310596;28;20218;-79
2023/10/11 12:12:10;;;;;;;11.63;5.05;;;23.70;1.00;;;;;;10313510;28;20388;-79
2023/10/11 12:17:31;;;;;;;10.32;5.35;;;23.30;1.00;;;;;;10296112;28;20596;-79
2023/10/11 12:22:52;;;;;;;11.30;5.40;;;23.00;1.00;;;;;;10312135;28;20190;-79
2023/10/11 12:28:14;;;;;;;11.85;6.07;;;23.40;1.00;;;;;;10298170;28;20225;-80
2023/10/11 12:33:35;;;;;;;11.05;5.18;;;23.80;1.00;;;;;;10275726;28;20246;-79
2023/10/11 12:38:57;;;;;;;17.95;6.38;;;24.60;1.00;;;;;;10280312;28;20226;-79
2023/10/11 12:44:19;;;;;;;13.50;6.82;;;24.70;1.00;;;;;;10310344;28;20211;-79
2023/10/11 12:49:40;;;;;;;18.60;6.57;;;24.50;1.00;;;;;;10313245;28;20524;-78
2023/10/11 12:55:01;;;;;;;12.85;4.60;;;23.90;1.00;;;;;;10327943;28;20253;-79
2023/10/11 13:00:31;;;;;;;11.05;5.82;;;23.10;1.00;;;;;;10304282;28;20202;-79
2023/10/11 13:05:56;;;;;;;12.82;6.07;;;22.60;1.00;;;;;;10289631;28;20588;-79
2023/10/11 13:11:21;;;;;;;19.30;8.23;;;22.70;1.00;;;;;;10281340;28;20257;-79
2023/10/11 13:16:42;;;;;;;13.52;4.90;;;22.90;1.00;;;;;;10323593;28;20229;-79
2023/10/11 13:22:09;;;;;;;8.85;4.65;;;23.00;1.00;;;;;;10271598;28;20203;-80
2023/10/11 13:27:30;;;;;;;14.38;4.47;;;23.50;1.00;;;;;;10287816;28;20231;-79
2023/10/11 13:32:57;;;;;;;10.27;4.90;;;23.90;1.00;;;;;;10279080;28;20545;-79
2023/10/11 13:38:18;;;;;;;11.13;4.50;;;23.20;1.00;;;;;;10283870;28;20248;-79
2023/10/11 13:43:40;;;;;;;9.60;4.38;;;22.70;1.00;;;;;;10288673;28;20207;-80
2023/10/11 13:49:20;;;;;;;9.30;4.18;;;22.00;1.00;;;;;;10308622;28;20231;-79
2023/10/11 13:54:42;;;;;;;7.07;3.90;;;21.60;1.00;;;;;;10283814;28;20195;-79
2023/10/11 14:05:49;;;;;;;8.05;4.65;;;21.00;1.00;;;;;;10333291;28;20285;-80
2023/10/11 14:11:14;;;;;;;12.43;4.63;;;20.70;1.00;;;;;;10307010;28;20501;-79
2023/10/11 14:16:36;;;;;;;19.52;5.40;;;20.50;1.00;;;;;;10308301;28;20464;-79
2023/10/11 14:21:57;;;;;;;14.40;4.25;;;20.30;1.00;;;;;;10269892;28;20540;-79
2023/10/11 14:27:19;;;;;;;11.30;3.85;;;20.20;1.00;;;;;;10274733;28;20249;-79
2023/10/11 14:32:42;;;;;;;17.67;8.38;;;20.00;1.00;;;;;;10269925;28;20218;-79
2023/10/11 14:38:05;;;;;;;13.35;6.65;;;19.80;1.00;;;;;;10281776;28;20218;-79
2023/10/11 14:43:26;;;;;;;14.80;7.20;;;19.70;1.00;;;;;;10313492;28;20527;-79
2023/10/11 14:48:49;;;;;;;15.93;8.05;;;19.60;1.00;;;;;;10296911;28;20238;-80
2023/10/11 14:54:12;;;;;;;13.77;7.20;;;19.50;1.00;;;;;;10293923;28;20593;-79
2023/10/11 14:59:35;;;;;;;13.25;7.50;;;19.40;64.80;;;;;;10273604;28;20202;-82
2023/10/11 15:04:57;;;;;;;13.82;6.97;;;19.30;99.90;;;;;;10280077;28;20230;-79
2023/10/11 15:10:26;;;;;;;11.80;5.78;;;19.30;99.90;;;;;;10324202;28;20526;-80
2023/10/11 15:15:47;;;;;;;13.43;5.85;;;19.20;99.90;;;;;;10296021;28;20206;-79
2023/10/11 15:21:09;;;;;;;14.85;6.57;;;19.10;99.90;;;;;;10273407;28;20234;-80
2023/10/11 15:26:32;;;;;;;11.93;5.53;;;19.00;99.90;;;;;;10293621;28;20524;-79
2023/10/11 15:31:54;;;;;;;12.13;5.80;;;19.00;99.90;;;;;;10312369;28;20216;-80
2023/10/11 15:37:15;;;;;;;20.88;10.77;;;19.00;99.90;;;;;;10310772;28;20545;-80
2023/10/11 15:42:40;;;;;;;16.75;8.05;;;18.90;99.90;;;;;;10305587;28;20214;-80
2023/10/11 15:48:01;;;;;;;10.38;5.32;;;18.80;99.90;;;;;;10317464;28;20226;-79
2023/10/11 15:53:23;;;;;;;13.48;5.30;;;18.80;99.90;;;;;;10295902;28;20211;-79
2023/10/11 15:58:44;;;;;;;14.73;5.05;;;18.80;99.90;;;;;;10317973;28;20281;-79
2023/10/11 16:04:05;;;;;;;15.00;5.20;;;18.80;99.90;;;;;;10293715;28;20187;-79
2023/10/11 16:09:27;;;;;;;10.98;5.70;;;18.80;99.90;;;;;;10315311;28;20230;-79
2023/10/11 16:14:48;;;;;;;12.23;5.72;;;18.70;99.90;;;;;;10284443;28;20198;-81
2023/10/11 16:20:10;;;;;;;16.83;6.30;;;18.70;99.90;;;;;;10312975;28;20309;-79
2023/10/11 16:25:31;;;;;;;15.35;4.95;;;18.60;99.90;;;;;;10330469;28;20277;-79
2023/10/11 16:30:55;;;;;;;8.75;5.43;;;18.60;1.00;;;;;;10317610;28;20285;-80
2023/10/11 16:36:17;;;;;;;18.13;7.00;;;18.50;1.00;;;;;;10317859;28;20321;-79
2023/10/11 16:41:38;;;;;;;14.00;6.55;;;18.50;1.00;;;;;;10317389;28;20191;-79
2023/10/11 16:47:05;;;;;;;28.83;12.60;;;18.50;1.00;;;;;;10280672;28;20241;-79
2023/10/11 16:52:27;;;;;;;11.05;5.28;;;18.50;1.00;;;;;;10277984;28;20200;-80
2023/10/11 16:57:48;;;;;;;12.70;5.03;;;18.50;1.00;;;;;;10303321;28;20236;-79
2023/10/11 17:03:13;;;;;;;7.97;4.47;;;18.50;1.00;;;;;;10316847;28;20191;-79
2023/10/11 17:08:35;;;;;;;12.32;4.80;;;18.50;1.00;;;;;;10275892;28;20235;-80
2023/10/11 17:13:57;;;;;;;15.73;4.25;;;18.50;1.00;;;;;;10262723;29;20195;-80
2023/10/11 17:19:20;;;;;;;9.32;4.68;;;18.50;1.00;;;;;;10315219;28;20213;-80
2023/10/11 17:24:41;;;;;;;13.27;3.80;;;18.50;1.00;;;;;;10315852;28;20489;-79
2023/10/11 17:30:05;;;;;;;14.13;5.32;;;18.40;1.00;;;;;;10315522;28;20532;-79
2023/10/11 17:35:27;;;;;;;8.27;5.28;;;18.30;1.00;;;;;;10300998;28;20555;-79
2023/10/11 17:40:48;;;;;;;11.63;4.72;;;18.20;1.00;;;;;;10305997;28;20453;-79
2023/10/11 17:46:10;;;;;;;13.80;5.45;;;18.30;1.00;;;;;;10301527;28;20198;-79
2023/10/11 17:51:32;;;;;;;9.23;4.15;;;18.20;1.00;;;;;;10278030;28;20206;-79
2023/10/11 17:56:53;;;;;;;8.07;4.22;;;18.20;1.00;;;;;;10295733;28;20199;-79
2023/10/11 18:02:15;;;;;;;6.82;4.40;;;18.10;94.70;;;;;;10285407;28;20213;-79
2023/10/11 18:07:36;;;;;;;9.88;5.03;;;18.10;99.90;;;;;;10289048;28;20238;-80
2023/10/11 18:12:57;;;;;;;8.48;4.18;;;18.10;99.90;;;;;;10306100;28;20341;-79
2023/10/11 18:18:19;;;;;;;11.27;5.90;;;18.00;99.90;;;;;;10299838;28;20253;-79
2023/10/11 18:23:40;;;;;;;10.35;4.43;;;17.90;1.00;;;;;;10312670;28;20205;-79
2023/10/11 18:34:22;;;;;;;12.48;5.85;;;17.80;1.00;;;;;;10281883;28;20238;-79
2023/10/11 18:39:47;;;;;;;20.42;6.43;;;17.80;99.90;;;;;;10276600;28;20198;-79
2023/10/11 18:45:11;;;;;;;17.75;5.85;;;17.80;99.90;;;;;;10308394;28;20244;-79
2023/10/11 18:50:32;;;;;;;10.85;4.22;;;17.70;99.90;;;;;;10285309;28;20218;-79
2023/10/11 18:55:54;;;;;;;14.25;4.60;;;17.90;31.60;;;;;;10299710;28;20198;-79
2023/10/11 19:01:16;;;;;;;11.98;4.57;;;17.90;17.20;;;;;;10301870;28;20205;-80
2023/10/11 19:06:38;;;;;;;14.00;4.30;;;17.90;1.00;;;;;;10310118;28;20245;-80
2023/10/11 19:12:00;;;;;;;13.50;4.82;;;17.90;9.50;;;;;;10327775;28;20196;-80
2023/10/11 19:17:21;;;;;;;10.75;4.28;;;18.00;1.00;;;;;;10320640;28;20225;-80
2023/10/11 19:22:45;;;;;;;7.22;4.40;;;17.90;5.60;;;;;;10286509;28;20211;-80
2023/10/11 19:28:08;;;;;;;8.10;4.97;;;17.90;87.90;;;;;;10309951;28;20222;-79
2023/10/11 19:33:29;;;;;;;6.85;3.80;;;17.90;99.90;;;;;;10304207;28;20252;-79
2023/10/11 19:38:51;;;;;;;14.48;3.65;;;18.00;53.20;;;;;;10319916;28;20205;-79
2023/10/11 19:44:12;;;;;;;8.68;4.57;;;17.90;94.50;;;;;;10290793;28;20509;-79
2023/10/11 19:49:33;;;;;;;11.48;4.55;;;17.90;78.60;;;;;;10305623;28;20464;-79
2023/10/11 19:54:54;;;;;;;12.80;5.05;;;17.90;99.90;;;;;;10292768;28;20541;-79
2023/10/11 20:00:18;;;;;;;7.57;3.80;;;17.80;99.90;;;;;;10292692;28;20221;-79
2023/10/11 20:05:40;;;;;;;9.82;4.07;;;17.80;99.90;;;;;;10313745;28;20422;-80
2023/10/11 20:11:01;;;;;;;8.73;3.88;;;17.80;99.90;;;;;;10279024;29;20521;-79
2023/10/11 20:16:22;;;;;;;20.67;10.90;;;17.70;99.90;;;;;;10314679;28;20213;-79
2023/10/11 20:21:44;;;;;;;11.10;5.45;;;17.70;99.90;;;;;;10290669;28;20245;-79
2023/10/11 20:27:07;;;;;;;12.68;4.85;;;17.80;59.00;;;;;;10303806;28;20237;-79
2023/10/11 20:32:28;;;;;;;9.93;3.78;;;17.90;1.00;;;;;;10303525;28;20264;-79
2023/10/11 20:37:55;;;;;;;5.75;3.40;;;17.90;1.00;;;;;;10317953;28;20194;-80
2023/10/11 20:43:17;;;;;;;6.47;2.72;;;17.90;1.00;;;;;;10303461;28;20241;-80
2023/10/11 20:48:38;;;;;;;7.53;3.40;;;17.80;1.00;;;;;;10303656;28;20567;-79
2023/10/11 20:54:00;;;;;;;7.40;3.00;;;17.70;1.00;;;;;;10303035;28;20437;-79
2023/10/11 20:59:24;;;;;;;5.25;2.95;;;17.70;1.00;;;;;;10303244;28;20229;-80
2023/10/11 21:04:47;;;;;;;4.32;2.83;;;17.60;1.00;;;;;;10299517;28;20251;-80
2023/10/11 21:10:12;;;;;;;3.72;2.70;;;17.60;1.00;;;;;;10315492;28;20395;-79
2023/10/11 21:15:33;;;;;;;4.22;2.53;;;17.70;1.00;;;;;;10276432;29;20532;-79
2023/10/11 21:20:55;;;;;;;4.70;3.03;;;17.50;1.00;;;;;;10271073;28;20468;-79
2023/10/11 21:26:16;;;;;;;7.18;3.30;;;17.50;99.90;;;;;;10302314;28;20224;-80
2023/10/11 21:31:37;;;;;;;6.55;3.65;;;17.50;99.90;;;;;;10291942;28;20210;-80
2023/10/11 21:36:59;;;;;;;12.75;3.58;;;17.40;1.00;;;;;;10314947;28;20263;-80
2023/10/11 21:42:21;;;;;;;18.23;4.15;;;17.40;1.00;;;;;;10313379;28;20204;-79
2023/10/11 21:47:46;;;;;;;9.13;3.67;;;17.40;1.00;;;;;;10314801;28;20241;-80
2023/10/11 21:53:09;;;;;;;10.18;3.65;;;17.30;1.00;;;;;;10292390;28;20205;-80
2023/10/11 21:58:31;;;;;;;9.15;3.80;;;;;;;;;;10301751;28;20209;-80
2023/10/11 22:03:56;;;;;;;9.98;4.78;;;;;;;;;;10292157;28;20276;-80
2023/10/11 22:09:22;;;;;;;10.57;4.43;;;;;;;;;;10312617;28;20263;-79
2023/10/11 22:14:43;;;;;;;9.27;3.40;;;;;;;;;;10276674;28;20289;-80
2023/10/11 22:20:05;;;;;;;6.57;3.58;;;17.60;1.00;;;;;;10286189;28;20448;-79
2023/10/11 22:25:26;;;;;;;8.90;3.38;;;17.50;99.90;;;;;;10313987;28;20189;-79
2023/10/11 22:30:49;;;;;;;9.18;4.35;;;17.50;1.00;;;;;;10312305;28;20482;-79
2023/10/11 22:36:16;;;;;;;10.48;5.43;;;;;;;;;;10314765;28;20241;-80
2023/10/11 22:41:38;;;;;;;6.75;3.60;;;;;;;;;;10313552;28;20231;-79
2023/10/11 22:46:59;;;;;;;8.38;4.10;;;;;;;;;;10313031;28;20199;-80
2023/10/11 22:52:21;;;;;;;8.00;3.95;;;;;;;;;;10277082;28;20233;-80
2023/10/11 22:57:43;;;;;;;7.90;3.58;;;;;;;;;;10276177;28;20192;-80
2023/10/11 23:03:06;;;;;;;8.27;3.17;;;17.10;6.80;;;;;;10297370;28;20699;-79
2023/10/11 23:08:31;;;;;;;8.63;3.50;;;;;;;;;;10311644;28;20603;-80
2023/10/11 23:13:54;;;;;;;5.70;3.58;;;;;;;;;;10312658;28;20206;-80
2023/10/11 23:19:18;;;;;;;8.52;3.58;;;;;;;;;;10312437;28;20394;-79
2023/10/11 23:24:43;;;;;;;6.55;4.18;;;;;;;;;;10312600;28;20228;-79
2023/10/11 23:30:11;;;;;;;13.43;4.18;;;;;;;;;;10295467;28;20248;-80
2023/10/11 23:35:36;;;;;;;6.75;4.25;;;;;;;;;;10313604;28;20305;-80
2023/10/11 23:41:14;;;;;;;7.55;3.47;;;;;;;;;;10298178;28;20295;-80
2023/10/11 23:46:39;;;;;;;6.97;3.63;;;;;;;;;;10298794;28;20232;-80
2023/10/11 23:52:12;;;;;;;12.48;4.22;;;;;;;;;;10310871;28;20538;-80
2023/10/11 23:57:45;;;;;;;5.40;2.90;;;;;;;;;;10284909;28;20275;-79
